sensor_id;sensor_type;location;lat;lon;timestamp;P1;durP1;ratioP1;P2;durP2;ratioP2
19388;SDS011;9830;41.876;23.474;2023-08-06T00:00:08;5.03;;;2.60;;
19388;SDS011;9830;41.876;23.474;2023-08-06T00:02:34;2.13;;;1.47;;
19388;SDS011;9830;41.876;23.474;2023-08-06T00:05:00;4.73;;;2.93;;
19388;SDS011;9830;41.876;23.474;2023-08-06T00:07:26;3.10;;;2.40;;
19388;SDS011;9830;41.876;23.474;2023-08-06T00:09:52;1.73;;;1.20;;
19388;SDS011;9830;41.876;23.474;2023-08-06T00:12:17;2.93;;;1.70;;
19388;SDS011;9830;41.876;23.474;2023-08-06T00:14:43;4.60;;;2.07;;
19388;SDS011;9830;41.876;23.474;2023-08-06T00:17:09;1.23;;;1.23;;
19388;SDS011;9830;41.876;23.474;2023-08-06T00:19:35;3.10;;;1.87;;
19388;SDS011;9830;41.876;23.474;2023-08-06T00:22:00;2.07;;;1.97;;
19388;SDS011;9830;41.876;23.474;2023-08-06T00:24:27;1.50;;;1.40;;
19388;SDS011;9830;41.876;23.474;2023-08-06T00:26:52;5.17;;;2.17;;
19388;SDS011;9830;41.876;23.474;2023-08-06T00:29:18;2.27;;;2.13;;
19388;SDS011;9830;41.876;23.474;2023-08-06T00:31:44;4.20;;;2.63;;
19388;SDS011;9830;41.876;23.474;2023-08-06T00:34:10;1.70;;;1.60;;
19388;SDS011;9830;41.876;23.474;2023-08-06T00:36:35;1.10;;;1.10;;
19388;SDS011;9830;41.876;23.474;2023-08-06T00:39:01;3.43;;;1.60;;
19388;SDS011;9830;41.876;23.474;2023-08-06T00:41:27;1.30;;;1.30;;
19388;SDS011;9830;41.876;23.474;2023-08-06T00:43:53;1.60;;;1.50;;
19388;SDS011;9830;41.876;23.474;2023-08-06T00:46:18;1.10;;;1.00;;
19388;SDS011;9830;41.876;23.474;2023-08-06T00:48:44;1.13;;;1.13;;
19388;SDS011;9830;41.876;23.474;2023-08-06T00:51:10;1.80;;;1.63;;
19388;SDS011;9830;41.876;23.474;2023-08-06T00:53:39;1.43;;;1.43;;
19388;SDS011;9830;41.876;23.474;2023-08-06T00:56:05;8.70;;;2.83;;
19388;SDS011;9830;41.876;23.474;2023-08-06T00:58:32;0.40;;;0.40;;
19388;SDS011;9830;41.876;23.474;2023-08-06T01:01:00;1.87;;;1.77;;
19388;SDS011;9830;41.876;23.474;2023-08-06T01:03:25;1.60;;;1.60;;
19388;SDS011;9830;41.876;23.474;2023-08-06T01:05:51;1.80;;;1.70;;
19388;SDS011;9830;41.876;23.474;2023-08-06T01:11:31;2.97;;;1.90;;
19388;SDS011;9830;41.876;23.474;2023-08-06T01:13:46;1.87;;;1.77;;
19388;SDS011;9830;41.876;23.474;2023-08-06T01:16:18;1.23;;;1.23;;
19388;SDS011;9830;41.876;23.474;2023-08-06T01:18:46;2.10;;;1.93;;
19388;SDS011;9830;41.876;23.474;2023-08-06T01:21:14;2.80;;;1.87;;
19388;SDS011;9830;41.876;23.474;2023-08-06T01:23:41;1.37;;;1.27;;
19388;SDS011;9830;41.876;23.474;2023-08-06T01:39:12;3.13;;;1.37;;
19388;SDS011;9830;41.876;23.474;2023-08-06T01:41:38;2.07;;;1.97;;
19388;SDS011;9830;41.876;23.474;2023-08-06T01:44:04;3.20;;;2.90;;
19388;SDS011;9830;41.876;23.474;2023-08-06T01:46:30;2.53;;;2.33;;
19388;SDS011;9830;41.876;23.474;2023-08-06T01:48:56;3.67;;;1.43;;
19388;SDS011;9830;41.876;23.474;2023-08-06T01:51:21;3.10;;;2.90;;
19388;SDS011;9830;41.876;23.474;2023-08-06T01:53:47;1.60;;;1.43;;
19388;SDS011;9830;41.876;23.474;2023-08-06T01:56:13;2.03;;;1.93;;
19388;SDS011;9830;41.876;23.474;2023-08-06T01:58:38;3.10;;;2.60;;
19388;SDS011;9830;41.876;23.474;2023-08-06T02:01:04;1.97;;;1.87;;
19388;SDS011;9830;41.876;23.474;2023-08-06T02:03:30;1.47;;;1.40;;
19388;SDS011;9830;41.876;23.474;2023-08-06T02:05:56;3.27;;;2.03;;
19388;SDS011;9830;41.876;23.474;2023-08-06T02:08:21;1.67;;;1.57;;
19388;SDS011;9830;41.876;23.474;2023-08-06T02:10:47;2.23;;;2.07;;
19388;SDS011;9830;41.876;23.474;2023-08-06T02:13:13;6.17;;;1.73;;
19388;SDS011;9830;41.876;23.474;2023-08-06T02:15:42;4.53;;;2.60;;
19388;SDS011;9830;41.876;23.474;2023-08-06T02:18:09;2.97;;;2.60;;
19388;SDS011;9830;41.876;23.474;2023-08-06T02:20:34;2.20;;;2.00;;
19388;SDS011;9830;41.876;23.474;2023-08-06T02:23:00;2.77;;;2.67;;
19388;SDS011;9830;41.876;23.474;2023-08-06T02:25:25;2.07;;;1.90;;
19388;SDS011;9830;41.876;23.474;2023-08-06T02:27:51;2.67;;;2.57;;
19388;SDS011;9830;41.876;23.474;2023-08-06T02:30:17;2.20;;;1.97;;
19388;SDS011;9830;41.876;23.474;2023-08-06T02:32:42;3.40;;;3.13;;
19388;SDS011;9830;41.876;23.474;2023-08-06T02:35:08;3.50;;;3.10;;
19388;SDS011;9830;41.876;23.474;2023-08-06T02:37:34;1.87;;;1.80;;
19388;SDS011;9830;41.876;23.474;2023-08-06T02:39:59;2.53;;;2.43;;
19388;SDS011;9830;41.876;23.474;2023-08-06T02:42:25;3.73;;;2.63;;
19388;SDS011;9830;41.876;23.474;2023-08-06T02:44:52;7.87;;;2.13;;
19388;SDS011;9830;41.876;23.474;2023-08-06T02:47:20;2.37;;;2.27;;
19388;SDS011;9830;41.876;23.474;2023-08-06T02:49:46;1.60;;;1.53;;
19388;SDS011;9830;41.876;23.474;2023-08-06T02:52:11;1.43;;;1.33;;
19388;SDS011;9830;41.876;23.474;2023-08-06T02:54:37;0.70;;;0.70;;
19388;SDS011;9830;41.876;23.474;2023-08-06T02:57:03;0.60;;;0.40;;
19388;SDS011;9830;41.876;23.474;2023-08-06T02:59:30;0.30;;;0.30;;
19388;SDS011;9830;41.876;23.474;2023-08-06T03:01:56;1.13;;;0.63;;
19388;SDS011;9830;41.876;23.474;2023-08-06T03:04:22;0.67;;;0.57;;
19388;SDS011;9830;41.876;23.474;2023-08-06T03:06:51;0.20;;;0.20;;
19388;SDS011;9830;41.876;23.474;2023-08-06T03:09:17;0.00;;;0.00;;
19388;SDS011;9830;41.876;23.474;2023-08-06T03:11:43;0.23;;;0.23;;
19388;SDS011;9830;41.876;23.474;2023-08-06T03:14:09;0.13;;;0.13;;
19388;SDS011;9830;41.876;23.474;2023-08-06T03:16:34;0.23;;;0.23;;
19388;SDS011;9830;41.876;23.474;2023-08-06T03:19:00;2.93;;;0.43;;
19388;SDS011;9830;41.876;23.474;2023-08-06T03:21:26;1.40;;;0.73;;
19388;SDS011;9830;41.876;23.474;2023-08-06T03:23:51;1.00;;;0.60;;
19388;SDS011;9830;41.876;23.474;2023-08-06T03:26:17;0.33;;;0.33;;
19388;SDS011;9830;41.876;23.474;2023-08-06T03:28:43;0.47;;;0.33;;
19388;SDS011;9830;41.876;23.474;2023-08-06T03:31:09;3.03;;;0.70;;
19388;SDS011;9830;41.876;23.474;2023-08-06T03:33:34;0.30;;;0.30;;
19388;SDS011;9830;41.876;23.474;2023-08-06T03:36:00;2.00;;;0.90;;
19388;SDS011;9830;41.876;23.474;2023-08-06T03:38:26;0.43;;;0.43;;
19388;SDS011;9830;41.876;23.474;2023-08-06T03:40:52;1.00;;;0.70;;
19388;SDS011;9830;41.876;23.474;2023-08-06T03:43:18;0.17;;;0.17;;
19388;SDS011;9830;41.876;23.474;2023-08-06T03:45:44;1.03;;;0.63;;
19388;SDS011;9830;41.876;23.474;2023-08-06T03:48:10;0.00;;;0.00;;
19388;SDS011;9830;41.876;23.474;2023-08-06T03:50:36;0.73;;;0.40;;
19388;SDS011;9830;41.876;23.474;2023-08-06T03:53:02;0.10;;;0.10;;
19388;SDS011;9830;41.876;23.474;2023-08-06T03:55:27;0.20;;;0.20;;
19388;SDS011;9830;41.876;23.474;2023-08-06T03:57:53;0.27;;;0.23;;
19388;SDS011;9830;41.876;23.474;2023-08-06T04:00:19;0.07;;;0.07;;
19388;SDS011;9830;41.876;23.474;2023-08-06T04:02:44;0.17;;;0.17;;
19388;SDS011;9830;41.876;23.474;2023-08-06T04:05:10;0.10;;;0.10;;
19388;SDS011;9830;41.876;23.474;2023-08-06T04:07:36;0.50;;;0.50;;
19388;SDS011;9830;41.876;23.474;2023-08-06T04:10:02;0.97;;;0.77;;
19388;SDS011;9830;41.876;23.474;2023-08-06T04:12:29;0.13;;;0.13;;
19388;SDS011;9830;41.876;23.474;2023-08-06T04:14:56;0.63;;;0.63;;
19388;SDS011;9830;41.876;23.474;2023-08-06T04:17:23;0.13;;;0.13;;
19388;SDS011;9830;41.876;23.474;2023-08-06T04:19:53;0.50;;;0.50;;
19388;SDS011;9830;41.876;23.474;2023-08-06T04:22:20;0.87;;;0.73;;
19388;SDS011;9830;41.876;23.474;2023-08-06T04:24:46;0.10;;;0.10;;
19388;SDS011;9830;41.876;23.474;2023-08-06T04:27:13;1.33;;;0.60;;
19388;SDS011;9830;41.876;23.474;2023-08-06T04:29:39;1.33;;;1.23;;
19388;SDS011;9830;41.876;23.474;2023-08-06T04:32:05;2.50;;;2.30;;
19388;SDS011;9830;41.876;23.474;2023-08-06T04:34:33;3.23;;;2.93;;
19388;SDS011;9830;41.876;23.474;2023-08-06T04:37:00;1.03;;;1.03;;
19388;SDS011;9830;41.876;23.474;2023-08-06T04:39:25;1.00;;;1.00;;
19388;SDS011;9830;41.876;23.474;2023-08-06T04:41:51;1.10;;;1.03;;
19388;SDS011;9830;41.876;23.474;2023-08-06T04:44:17;0.93;;;0.70;;
19388;SDS011;9830;41.876;23.474;2023-08-06T04:46:43;1.77;;;1.63;;
19388;SDS011;9830;41.876;23.474;2023-08-06T04:49:08;9.13;;;4.17;;
19388;SDS011;9830;41.876;23.474;2023-08-06T04:51:34;4.93;;;4.45;;
19388;SDS011;9830;41.876;23.474;2023-08-06T04:54:00;1.98;;;1.88;;
19388;SDS011;9830;41.876;23.474;2023-08-06T04:56:26;1.23;;;1.23;;
19388;SDS011;9830;41.876;23.474;2023-08-06T04:58:52;0.95;;;0.90;;
19388;SDS011;9830;41.876;23.474;2023-08-06T05:01:18;1.42;;;1.38;;
19388;SDS011;9830;41.876;23.474;2023-08-06T05:03:43;0.60;;;0.60;;
19388;SDS011;9830;41.876;23.474;2023-08-06T05:06:09;0.60;;;0.60;;
19388;SDS011;9830;41.876;23.474;2023-08-06T05:08:35;0.95;;;0.95;;
19388;SDS011;9830;41.876;23.474;2023-08-06T05:11:01;0.50;;;0.40;;
19388;SDS011;9830;41.876;23.474;2023-08-06T05:13:27;0.63;;;0.63;;
19388;SDS011;9830;41.876;23.474;2023-08-06T05:15:53;1.27;;;1.17;;
19388;SDS011;9830;41.876;23.474;2023-08-06T05:18:19;1.80;;;1.30;;
19388;SDS011;9830;41.876;23.474;2023-08-06T05:20:45;1.52;;;1.40;;
19388;SDS011;9830;41.876;23.474;2023-08-06T05:23:11;0.80;;;0.80;;
19388;SDS011;9830;41.876;23.474;2023-08-06T05:25:37;0.57;;;0.57;;
19388;SDS011;9830;41.876;23.474;2023-08-06T05:28:03;2.33;;;1.60;;
19388;SDS011;9830;41.876;23.474;2023-08-06T05:30:29;1.63;;;1.52;;
19388;SDS011;9830;41.876;23.474;2023-08-06T05:32:55;1.00;;;1.00;;
19388;SDS011;9830;41.876;23.474;2023-08-06T05:35:21;1.00;;;0.98;;
19388;SDS011;9830;41.876;23.474;2023-08-06T05:37:47;0.60;;;0.60;;
19388;SDS011;9830;41.876;23.474;2023-08-06T05:40:14;0.50;;;0.50;;
19388;SDS011;9830;41.876;23.474;2023-08-06T05:42:40;0.60;;;0.60;;
19388;SDS011;9830;41.876;23.474;2023-08-06T05:45:06;0.70;;;0.68;;
19388;SDS011;9830;41.876;23.474;2023-08-06T05:47:32;0.60;;;0.60;;
19388;SDS011;9830;41.876;23.474;2023-08-06T05:49:58;1.20;;;0.60;;
19388;SDS011;9830;41.876;23.474;2023-08-06T05:52:24;0.57;;;0.57;;
19388;SDS011;9830;41.876;23.474;2023-08-06T05:54:49;1.02;;;1.02;;
19388;SDS011;9830;41.876;23.474;2023-08-06T05:57:16;1.15;;;0.95;;
19388;SDS011;9830;41.876;23.474;2023-08-06T05:59:42;0.95;;;0.95;;
19388;SDS011;9830;41.876;23.474;2023-08-06T06:02:08;2.63;;;1.38;;
19388;SDS011;9830;41.876;23.474;2023-08-06T06:04:33;0.57;;;0.57;;
19388;SDS011;9830;41.876;23.474;2023-08-06T06:06:59;0.77;;;0.77;;
19388;SDS011;9830;41.876;23.474;2023-08-06T06:09:25;3.40;;;1.33;;
19388;SDS011;9830;41.876;23.474;2023-08-06T06:11:51;0.90;;;0.90;;
19388;SDS011;9830;41.876;23.474;2023-08-06T06:14:17;1.90;;;1.80;;
19388;SDS011;9830;41.876;23.474;2023-08-06T06:16:43;0.50;;;0.50;;
19388;SDS011;9830;41.876;23.474;2023-08-06T06:19:09;0.47;;;0.47;;
19388;SDS011;9830;41.876;23.474;2023-08-06T06:21:35;0.80;;;0.80;;
19388;SDS011;9830;41.876;23.474;2023-08-06T06:24:02;0.52;;;0.52;;
19388;SDS011;9830;41.876;23.474;2023-08-06T06:26:29;0.40;;;0.40;;
19388;SDS011;9830;41.876;23.474;2023-08-06T06:28:55;2.72;;;1.33;;
19388;SDS011;9830;41.876;23.474;2023-08-06T06:31:21;3.40;;;1.08;;
19388;SDS011;9830;41.876;23.474;2023-08-06T06:33:47;3.33;;;0.88;;
19388;SDS011;9830;41.876;23.474;2023-08-06T06:36:12;0.60;;;0.50;;
19388;SDS011;9830;41.876;23.474;2023-08-06T06:38:38;0.98;;;0.98;;
19388;SDS011;9830;41.876;23.474;2023-08-06T06:41:04;0.93;;;0.88;;
19388;SDS011;9830;41.876;23.474;2023-08-06T06:43:29;1.05;;;1.05;;
19388;SDS011;9830;41.876;23.474;2023-08-06T06:46:01;0.95;;;0.95;;
19388;SDS011;9830;41.876;23.474;2023-08-06T06:48:27;1.08;;;1.08;;
19388;SDS011;9830;41.876;23.474;2023-08-06T06:50:54;1.38;;;0.90;;
19388;SDS011;9830;41.876;23.474;2023-08-06T06:53:20;0.28;;;0.28;;
19388;SDS011;9830;41.876;23.474;2023-08-06T06:55:52;0.95;;;0.95;;
19388;SDS011;9830;41.876;23.474;2023-08-06T06:58:20;0.50;;;0.50;;
19388;SDS011;9830;41.876;23.474;2023-08-06T07:00:47;0.68;;;0.68;;
19388;SDS011;9830;41.876;23.474;2023-08-06T07:03:14;1.48;;;1.30;;
19388;SDS011;9830;41.876;23.474;2023-08-06T07:05:40;0.35;;;0.35;;
19388;SDS011;9830;41.876;23.474;2023-08-06T07:08:06;0.88;;;0.88;;
19388;SDS011;9830;41.876;23.474;2023-08-06T07:10:31;0.65;;;0.65;;
19388;SDS011;9830;41.876;23.474;2023-08-06T07:12:57;0.80;;;0.80;;
19388;SDS011;9830;41.876;23.474;2023-08-06T07:15:23;0.98;;;0.98;;
19388;SDS011;9830;41.876;23.474;2023-08-06T07:17:48;0.82;;;0.82;;
19388;SDS011;9830;41.876;23.474;2023-08-06T07:20:14;0.90;;;0.90;;
19388;SDS011;9830;41.876;23.474;2023-08-06T07:22:40;1.92;;;1.30;;
19388;SDS011;9830;41.876;23.474;2023-08-06T07:25:05;0.50;;;0.50;;
19388;SDS011;9830;41.876;23.474;2023-08-06T07:27:32;1.33;;;1.10;;
19388;SDS011;9830;41.876;23.474;2023-08-06T07:29:57;0.77;;;0.77;;
19388;SDS011;9830;41.876;23.474;2023-08-06T07:32:23;0.80;;;0.80;;
19388;SDS011;9830;41.876;23.474;2023-08-06T07:34:49;0.88;;;0.88;;
19388;SDS011;9830;41.876;23.474;2023-08-06T07:37:15;0.73;;;0.73;;
19388;SDS011;9830;41.876;23.474;2023-08-06T07:39:41;0.52;;;0.52;;
19388;SDS011;9830;41.876;23.474;2023-08-06T07:42:08;0.40;;;0.40;;
19388;SDS011;9830;41.876;23.474;2023-08-06T07:44:35;0.57;;;0.57;;
19388;SDS011;9830;41.876;23.474;2023-08-06T07:47:01;0.50;;;0.47;;
19388;SDS011;9830;41.876;23.474;2023-08-06T07:49:26;0.60;;;0.60;;
19388;SDS011;9830;41.876;23.474;2023-08-06T07:51:52;1.00;;;0.98;;
19388;SDS011;9830;41.876;23.474;2023-08-06T07:54:18;0.73;;;0.73;;
19388;SDS011;9830;41.876;23.474;2023-08-06T07:56:43;0.88;;;0.88;;
19388;SDS011;9830;41.876;23.474;2023-08-06T07:59:09;3.83;;;1.10;;
19388;SDS011;9830;41.876;23.474;2023-08-06T08:01:35;0.40;;;0.40;;
19388;SDS011;9830;41.876;23.474;2023-08-06T08:04:00;0.50;;;0.50;;
19388;SDS011;9830;41.876;23.474;2023-08-06T08:06:26;0.60;;;0.60;;
19388;SDS011;9830;41.876;23.474;2023-08-06T08:08:52;0.30;;;0.30;;
19388;SDS011;9830;41.876;23.474;2023-08-06T08:11:17;0.95;;;0.95;;
19388;SDS011;9830;41.876;23.474;2023-08-06T08:13:43;0.40;;;0.40;;
19388;SDS011;9830;41.876;23.474;2023-08-06T08:16:09;1.52;;;0.85;;
19388;SDS011;9830;41.876;23.474;2023-08-06T08:18:35;0.55;;;0.50;;
19388;SDS011;9830;41.876;23.474;2023-08-06T08:21:00;0.50;;;0.50;;
19388;SDS011;9830;41.876;23.474;2023-08-06T08:23:26;0.60;;;0.60;;
19388;SDS011;9830;41.876;23.474;2023-08-06T08:25:52;0.57;;;0.57;;
19388;SDS011;9830;41.876;23.474;2023-08-06T08:28:18;0.80;;;0.80;;
19388;SDS011;9830;41.876;23.474;2023-08-06T08:30:44;0.50;;;0.50;;
19388;SDS011;9830;41.876;23.474;2023-08-06T08:33:09;0.73;;;0.73;;
19388;SDS011;9830;41.876;23.474;2023-08-06T08:35:36;0.52;;;0.52;;
19388;SDS011;9830;41.876;23.474;2023-08-06T08:38:02;0.35;;;0.35;;
19388;SDS011;9830;41.876;23.474;2023-08-06T08:40:30;1.05;;;0.68;;
19388;SDS011;9830;41.876;23.474;2023-08-06T08:42:58;0.60;;;0.60;;
19388;SDS011;9830;41.876;23.474;2023-08-06T08:45:26;0.38;;;0.38;;
19388;SDS011;9830;41.876;23.474;2023-08-06T08:47:53;0.80;;;0.80;;
19388;SDS011;9830;41.876;23.474;2023-08-06T08:50:19;0.47;;;0.47;;
19388;SDS011;9830;41.876;23.474;2023-08-06T08:52:46;0.70;;;0.70;;
19388;SDS011;9830;41.876;23.474;2023-08-06T08:55:14;0.85;;;0.85;;
19388;SDS011;9830;41.876;23.474;2023-08-06T08:57:40;1.15;;;0.57;;
19388;SDS011;9830;41.876;23.474;2023-08-06T09:00:06;0.52;;;0.52;;
19388;SDS011;9830;41.876;23.474;2023-08-06T09:02:32;0.77;;;0.77;;
19388;SDS011;9830;41.876;23.474;2023-08-06T09:04:59;0.73;;;0.55;;
19388;SDS011;9830;41.876;23.474;2023-08-06T09:07:27;0.68;;;0.68;;
19388;SDS011;9830;41.876;23.474;2023-08-06T09:10:01;0.60;;;0.60;;
19388;SDS011;9830;41.876;23.474;2023-08-06T09:12:30;0.47;;;0.47;;
19388;SDS011;9830;41.876;23.474;2023-08-06T09:14:57;0.80;;;0.80;;
19388;SDS011;9830;41.876;23.474;2023-08-06T09:17:23;0.60;;;0.60;;
19388;SDS011;9830;41.876;23.474;2023-08-06T09:19:49;0.60;;;0.60;;
19388;SDS011;9830;41.876;23.474;2023-08-06T09:22:14;1.65;;;0.63;;
19388;SDS011;9830;41.876;23.474;2023-08-06T09:24:41;1.35;;;1.00;;
19388;SDS011;9830;41.876;23.474;2023-08-06T09:27:10;0.70;;;0.70;;
19388;SDS011;9830;41.876;23.474;2023-08-06T09:29:43;0.50;;;0.50;;
19388;SDS011;9830;41.876;23.474;2023-08-06T09:32:13;0.20;;;0.20;;
19388;SDS011;9830;41.876;23.474;2023-08-06T09:34:39;0.55;;;0.55;;
19388;SDS011;9830;41.876;23.474;2023-08-06T09:37:08;0.40;;;0.40;;
19388;SDS011;9830;41.876;23.474;2023-08-06T09:39:35;0.95;;;0.60;;
19388;SDS011;9830;41.876;23.474;2023-08-06T09:42:03;0.30;;;0.30;;
19388;SDS011;9830;41.876;23.474;2023-08-06T09:44:30;0.65;;;0.65;;
19388;SDS011;9830;41.876;23.474;2023-08-06T09:46:58;0.47;;;0.47;;
19388;SDS011;9830;41.876;23.474;2023-08-06T09:49:39;0.50;;;0.50;;
19388;SDS011;9830;41.876;23.474;2023-08-06T09:52:24;1.45;;;0.57;;
19388;SDS011;9830;41.876;23.474;2023-08-06T09:54:49;0.50;;;0.43;;
19388;SDS011;9830;41.876;23.474;2023-08-06T09:57:16;0.77;;;0.75;;
19388;SDS011;9830;41.876;23.474;2023-08-06T09:59:42;0.25;;;0.25;;
19388;SDS011;9830;41.876;23.474;2023-08-06T10:02:10;0.73;;;0.50;;
19388;SDS011;9830;41.876;23.474;2023-08-06T10:04:38;0.50;;;0.50;;
19388;SDS011;9830;41.876;23.474;2023-08-06T10:07:04;2.55;;;0.52;;
19388;SDS011;9830;41.876;23.474;2023-08-06T10:09:30;0.65;;;0.65;;
19388;SDS011;9830;41.876;23.474;2023-08-06T10:11:56;0.50;;;0.50;;
19388;SDS011;9830;41.876;23.474;2023-08-06T10:14:25;0.13;;;0.13;;
19388;SDS011;9830;41.876;23.474;2023-08-06T10:17:00;0.50;;;0.45;;
19388;SDS011;9830;41.876;23.474;2023-08-06T10:19:26;0.30;;;0.30;;
19388;SDS011;9830;41.876;23.474;2023-08-06T10:22:10;0.50;;;0.50;;
19388;SDS011;9830;41.876;23.474;2023-08-06T10:27:39;0.13;;;0.13;;
19388;SDS011;9830;41.876;23.474;2023-08-06T10:33:00;0.63;;;0.57;;
19388;SDS011;9830;41.876;23.474;2023-08-06T10:35:27;0.52;;;0.47;;
19388;SDS011;9830;41.876;23.474;2023-08-06T10:38:12;3.75;;;0.40;;
19388;SDS011;9830;41.876;23.474;2023-08-06T10:40:40;0.90;;;0.47;;
19388;SDS011;9830;41.876;23.474;2023-08-06T10:43:07;0.40;;;0.40;;
19388;SDS011;9830;41.876;23.474;2023-08-06T10:45:49;0.30;;;0.30;;
19388;SDS011;9830;41.876;23.474;2023-08-06T10:48:27;0.73;;;0.52;;
19388;SDS011;9830;41.876;23.474;2023-08-06T10:50:55;0.70;;;0.57;;
19388;SDS011;9830;41.876;23.474;2023-08-06T10:53:21;0.55;;;0.55;;
19388;SDS011;9830;41.876;23.474;2023-08-06T10:55:47;0.82;;;0.82;;
19388;SDS011;9830;41.876;23.474;2023-08-06T10:58:14;0.90;;;0.57;;
19388;SDS011;9830;41.876;23.474;2023-08-06T11:00:41;0.45;;;0.40;;
19388;SDS011;9830;41.876;23.474;2023-08-06T11:03:07;0.32;;;0.32;;
19388;SDS011;9830;41.876;23.474;2023-08-06T11:05:34;0.13;;;0.13;;
19388;SDS011;9830;41.876;23.474;2023-08-06T11:08:00;0.57;;;0.57;;
19388;SDS011;9830;41.876;23.474;2023-08-06T11:10:27;0.40;;;0.40;;
19388;SDS011;9830;41.876;23.474;2023-08-06T11:12:53;0.40;;;0.40;;
19388;SDS011;9830;41.876;23.474;2023-08-06T11:15:20;4.90;;;0.95;;
19388;SDS011;9830;41.876;23.474;2023-08-06T11:17:46;0.73;;;0.45;;
19388;SDS011;9830;41.876;23.474;2023-08-06T11:20:12;0.80;;;0.52;;
19388;SDS011;9830;41.876;23.474;2023-08-06T11:22:38;0.57;;;0.57;;
19388;SDS011;9830;41.876;23.474;2023-08-06T11:25:05;0.65;;;0.57;;
19388;SDS011;9830;41.876;23.474;2023-08-06T11:27:31;0.50;;;0.50;;
19388;SDS011;9830;41.876;23.474;2023-08-06T11:29:57;0.47;;;0.47;;
19388;SDS011;9830;41.876;23.474;2023-08-06T11:32:23;1.77;;;0.50;;
19388;SDS011;9830;41.876;23.474;2023-08-06T11:34:49;0.28;;;0.28;;
19388;SDS011;9830;41.876;23.474;2023-08-06T11:37:15;0.57;;;0.57;;
19388;SDS011;9830;41.876;23.474;2023-08-06T11:39:45;0.52;;;0.35;;
19388;SDS011;9830;41.876;23.474;2023-08-06T11:42:13;1.27;;;0.85;;
19388;SDS011;9830;41.876;23.474;2023-08-06T11:44:40;0.35;;;0.35;;
19388;SDS011;9830;41.876;23.474;2023-08-06T11:47:12;0.55;;;0.45;;
19388;SDS011;9830;41.876;23.474;2023-08-06T11:52:10;0.80;;;0.80;;
19388;SDS011;9830;41.876;23.474;2023-08-06T11:54:44;0.68;;;0.60;;
19388;SDS011;9830;41.876;23.474;2023-08-06T11:57:11;0.32;;;0.32;;
19388;SDS011;9830;41.876;23.474;2023-08-06T11:59:38;0.63;;;0.47;;
19388;SDS011;9830;41.876;23.474;2023-08-06T12:02:04;0.55;;;0.52;;
19388;SDS011;9830;41.876;23.474;2023-08-06T12:07:31;0.60;;;0.60;;
19388;SDS011;9830;41.876;23.474;2023-08-06T12:09:58;0.47;;;0.47;;
19388;SDS011;9830;41.876;23.474;2023-08-06T12:12:24;0.95;;;0.60;;
19388;SDS011;9830;41.876;23.474;2023-08-06T12:14:50;0.35;;;0.35;;
19388;SDS011;9830;41.876;23.474;2023-08-06T12:17:16;0.20;;;0.20;;
19388;SDS011;9830;41.876;23.474;2023-08-06T12:19:43;0.17;;;0.17;;
19388;SDS011;9830;41.876;23.474;2023-08-06T12:22:10;0.63;;;0.52;;
19388;SDS011;9830;41.876;23.474;2023-08-06T12:24:35;0.35;;;0.35;;
19388;SDS011;9830;41.876;23.474;2023-08-06T12:27:01;0.98;;;0.73;;
19388;SDS011;9830;41.876;23.474;2023-08-06T12:29:28;0.32;;;0.22;;
19388;SDS011;9830;41.876;23.474;2023-08-06T12:31:53;0.65;;;0.50;;
19388;SDS011;9830;41.876;23.474;2023-08-06T12:34:19;1.45;;;0.73;;
19388;SDS011;9830;41.876;23.474;2023-08-06T12:36:45;1.90;;;0.60;;
19388;SDS011;9830;41.876;23.474;2023-08-06T12:39:10;0.25;;;0.25;;
19388;SDS011;9830;41.876;23.474;2023-08-06T12:41:36;0.70;;;0.68;;
19388;SDS011;9830;41.876;23.474;2023-08-06T12:44:02;0.25;;;0.25;;
19388;SDS011;9830;41.876;23.474;2023-08-06T12:46:28;0.45;;;0.45;;
19388;SDS011;9830;41.876;23.474;2023-08-06T12:48:56;0.52;;;0.52;;
19388;SDS011;9830;41.876;23.474;2023-08-06T12:51:22;0.43;;;0.43;;
19388;SDS011;9830;41.876;23.474;2023-08-06T12:53:49;0.57;;;0.55;;
19388;SDS011;9830;41.876;23.474;2023-08-06T12:56:14;0.63;;;0.63;;
19388;SDS011;9830;41.876;23.474;2023-08-06T12:58:40;0.75;;;0.73;;
19388;SDS011;9830;41.876;23.474;2023-08-06T13:01:07;0.20;;;0.20;;
19388;SDS011;9830;41.876;23.474;2023-08-06T13:03:32;0.20;;;0.20;;
19388;SDS011;9830;41.876;23.474;2023-08-06T13:05:58;0.45;;;0.45;;
19388;SDS011;9830;41.876;23.474;2023-08-06T13:08:24;0.20;;;0.20;;
19388;SDS011;9830;41.876;23.474;2023-08-06T13:10:49;0.20;;;0.20;;
19388;SDS011;9830;41.876;23.474;2023-08-06T13:13:15;0.13;;;0.13;;
19388;SDS011;9830;41.876;23.474;2023-08-06T13:15:41;0.25;;;0.25;;
19388;SDS011;9830;41.876;23.474;2023-08-06T13:18:06;0.40;;;0.40;;
19388;SDS011;9830;41.876;23.474;2023-08-06T13:20:32;0.22;;;0.22;;
19388;SDS011;9830;41.876;23.474;2023-08-06T13:22:58;0.22;;;0.22;;
19388;SDS011;9830;41.876;23.474;2023-08-06T13:25:26;0.40;;;0.40;;
19388;SDS011;9830;41.876;23.474;2023-08-06T13:27:53;0.32;;;0.32;;
19388;SDS011;9830;41.876;23.474;2023-08-06T13:30:19;0.47;;;0.47;;
19388;SDS011;9830;41.876;23.474;2023-08-06T13:32:45;0.80;;;0.75;;
19388;SDS011;9830;41.876;23.474;2023-08-06T13:35:11;0.65;;;0.45;;
19388;SDS011;9830;41.876;23.474;2023-08-06T13:37:37;0.65;;;0.65;;
19388;SDS011;9830;41.876;23.474;2023-08-06T13:40:03;1.08;;;0.40;;
19388;SDS011;9830;41.876;23.474;2023-08-06T13:42:29;0.10;;;0.10;;
19388;SDS011;9830;41.876;23.474;2023-08-06T13:44:54;0.55;;;0.55;;
19388;SDS011;9830;41.876;23.474;2023-08-06T13:47:27;0.38;;;0.38;;
19388;SDS011;9830;41.876;23.474;2023-08-06T13:49:53;2.40;;;0.70;;
19388;SDS011;9830;41.876;23.474;2023-08-06T13:52:18;0.20;;;0.20;;
19388;SDS011;9830;41.876;23.474;2023-08-06T13:54:44;0.10;;;0.10;;
19388;SDS011;9830;41.876;23.474;2023-08-06T13:57:10;0.30;;;0.30;;
19388;SDS011;9830;41.876;23.474;2023-08-06T13:59:36;0.20;;;0.20;;
19388;SDS011;9830;41.876;23.474;2023-08-06T14:02:01;0.10;;;0.10;;
19388;SDS011;9830;41.876;23.474;2023-08-06T14:04:27;0.13;;;0.13;;
19388;SDS011;9830;41.876;23.474;2023-08-06T14:06:53;0.15;;;0.15;;
19388;SDS011;9830;41.876;23.474;2023-08-06T14:09:18;0.28;;;0.28;;
19388;SDS011;9830;41.876;23.474;2023-08-06T14:11:44;0.20;;;0.20;;
19388;SDS011;9830;41.876;23.474;2023-08-06T14:14:10;0.57;;;0.57;;
19388;SDS011;9830;41.876;23.474;2023-08-06T14:16:36;0.00;;;0.00;;
19388;SDS011;9830;41.876;23.474;2023-08-06T14:19:02;0.30;;;0.30;;
19388;SDS011;9830;41.876;23.474;2023-08-06T14:21:28;4.28;;;0.95;;
19388;SDS011;9830;41.876;23.474;2023-08-06T14:23:54;0.10;;;0.10;;
19388;SDS011;9830;41.876;23.474;2023-08-06T14:26:20;0.10;;;0.10;;
19388;SDS011;9830;41.876;23.474;2023-08-06T14:28:46;0.30;;;0.30;;
19388;SDS011;9830;41.876;23.474;2023-08-06T14:31:11;0.25;;;0.25;;
19388;SDS011;9830;41.876;23.474;2023-08-06T14:33:37;0.70;;;0.47;;
19388;SDS011;9830;41.876;23.474;2023-08-06T14:36:03;0.03;;;0.03;;
19388;SDS011;9830;41.876;23.474;2023-08-06T14:38:29;0.13;;;0.13;;
19388;SDS011;9830;41.876;23.474;2023-08-06T14:40:54;0.10;;;0.10;;
19388;SDS011;9830;41.876;23.474;2023-08-06T14:43:20;0.00;;;0.00;;
19388;SDS011;9830;41.876;23.474;2023-08-06T14:45:46;0.43;;;0.25;;
19388;SDS011;9830;41.876;23.474;2023-08-06T14:48:12;0.10;;;0.10;;
19388;SDS011;9830;41.876;23.474;2023-08-06T14:50:37;0.00;;;0.00;;
19388;SDS011;9830;41.876;23.474;2023-08-06T14:53:04;0.10;;;0.10;;
19388;SDS011;9830;41.876;23.474;2023-08-06T14:55:31;0.08;;;0.08;;
19388;SDS011;9830;41.876;23.474;2023-08-06T14:58:00;0.68;;;0.50;;
19388;SDS011;9830;41.876;23.474;2023-08-06T15:00:27;0.10;;;0.10;;
19388;SDS011;9830;41.876;23.474;2023-08-06T15:02:53;0.00;;;0.00;;
19388;SDS011;9830;41.876;23.474;2023-08-06T15:05:18;0.20;;;0.20;;
19388;SDS011;9830;41.876;23.474;2023-08-06T15:07:44;0.00;;;0.00;;
19388;SDS011;9830;41.876;23.474;2023-08-06T15:10:10;0.52;;;0.43;;